Pagrindinis puslapis
METAR-TAF:

METAR-TAF

Oro uostai :

Nanas, Tailandas

platuma: 18-46N, ilguma: 100-46E, Aukštis: 200 m

Dabartinis oras

Ataskaita buvo paskelbta 5 valandos ir 31 minutes, ne 11:00 UTC
Ramus vėjas
Temperatūra 23°C
Drėgmė 57%
Slėgis 1006 hPa
Matomumas: 6000 m

METAR: VTCN 271100Z 00000KT 6000 NSC 23/14 Q1006 NOSIG

Laikas: 23:31 (16:31 UTC)

Prognozė

Ataskaita buvo paskelbta 5 valandos ir 31 minutes, ne 11:00 UTC
Prognozė galioja nuo 27 metu 12 UTC su 28 metu 12 UTC
Vėjas 5 kt iš Pietryčių
Matomumas: 6000 m
Tapsmas
nuo 27 metu 23 UTC su 28 metu 01 UTC
Matomumas: 3000 m
rūkana
Tapsmas
nuo 28 metu 04 UTC su 28 metu 06 UTC
Matomumas: 6000 m

TAF: VTCN 271100Z 2712/2812 14005KT 6000 NSC BECMG 2723/2801 3000 BR BECMG 2804/2806 6000 NSW

Orai ataskaitas ir orų prognozės (METAR, TAF).

turimą stotys yra geltonos ir raudonos taškus žemėlapyje.

Perkelti pele per norėdami pamatyti stoties vardą.

Tada spustelėkite, norėdami matyti oro stebėjimo ir prognozės.

Norėdami pakeisti žemėlapį: spustelėkite ant žalios mygtukų su juodo kryžiaus žemyn,; žalią mygtuką su brūkšneliu, jei norite nutolinti; arba žalių rodyklių gretimoms žemėlapius.


METAR-TAF: